sensor_id;sensor_type;location;lat;lon;timestamp;temperature;humidity
52397;DHT22;38322;53.108;6.308;2023-04-24T05:03:36;10.00;99.90
52397;DHT22;38322;53.108;6.308;2023-04-24T05:06:02;10.00;99.90
52397;DHT22;38322;53.108;6.308;2023-04-24T05:08:28;10.00;99.90
52397;DHT22;38322;53.108;6.308;2023-04-24T05:10:54;10.00;99.90
52397;DHT22;38322;53.108;6.308;2023-04-24T05:13:20;10.00;99.90
52397;DHT22;38322;53.108;6.308;2023-04-24T05:15:46;10.00;99.90
52397;DHT22;38322;53.108;6.308;2023-04-24T05:18:12;10.00;99.90
52397;DHT22;38322;53.108;6.308;2023-04-24T05:20:38;10.00;99.90
52397;DHT22;38322;53.108;6.308;2023-04-24T05:23:03;10.00;99.90
52397;DHT22;38322;53.108;6.308;2023-04-24T05:25:29;10.00;99.90
52397;DHT22;38322;53.108;6.308;2023-04-24T05:28:01;10.00;99.90
52397;DHT22;38322;53.108;6.308;2023-04-24T05:30:27;10.00;99.90
52397;DHT22;38322;53.108;6.308;2023-04-24T05:32:53;10.00;99.90
52397;DHT22;38322;53.108;6.308;2023-04-24T05:35:18;9.90;99.90
52397;DHT22;38322;53.108;6.308;2023-04-24T05:37:44;9.90;99.90
52397;DHT22;38322;53.108;6.308;2023-04-24T05:40:11;9.90;99.90
52397;DHT22;38322;53.108;6.308;2023-04-24T05:42:37;9.90;99.90
52397;DHT22;38322;53.108;6.308;2023-04-24T05:45:03;9.80;99.90
52397;DHT22;38322;53.108;6.308;2023-04-24T05:47:29;9.80;99.90
52397;DHT22;38322;53.108;6.308;2023-04-24T05:49:55;9.80;99.90
52397;DHT22;38322;53.108;6.308;2023-04-24T05:52:21;9.80;99.90
52397;DHT22;38322;53.108;6.308;2023-04-24T05:54:47;9.80;99.90
52397;DHT22;38322;53.108;6.308;2023-04-24T05:57:13;9.80;99.90
52397;DHT22;38322;53.108;6.308;2023-04-24T05:59:39;9.70;99.90
52397;DHT22;38322;53.108;6.308;2023-04-24T06:02:06;9.70;99.90
52397;DHT22;38322;53.108;6.308;2023-04-24T06:04:32;9.80;99.90
52397;DHT22;38322;53.108;6.308;2023-04-24T06:06:59;9.70;99.90
52397;DHT22;38322;53.108;6.308;2023-04-24T06:09:25;9.80;99.90
52397;DHT22;38322;53.108;6.308;2023-04-24T06:11:51;9.80;99.90
52397;DHT22;38322;53.108;6.308;2023-04-24T06:14:19;9.80;99.90
52397;DHT22;38322;53.108;6.308;2023-04-24T06:16:45;9.80;99.90
52397;DHT22;38322;53.108;6.308;2023-04-24T06:19:11;9.80;99.90
52397;DHT22;38322;53.108;6.308;2023-04-24T06:21:37;9.80;99.90
52397;DHT22;38322;53.108;6.308;2023-04-24T06:24:03;9.80;99.90
52397;DHT22;38322;53.108;6.308;2023-04-24T06:26:30;9.80;99.90
52397;DHT22;38322;53.108;6.308;2023-04-24T06:28:57;9.80;99.90
52397;DHT22;38322;53.108;6.308;2023-04-24T06:31:24;9.80;99.90
52397;DHT22;38322;53.108;6.308;2023-04-24T06:33:50;9.80;99.90
52397;DHT22;38322;53.108;6.308;2023-04-24T06:36:16;9.90;99.90
52397;DHT22;38322;53.108;6.308;2023-04-24T06:38:42;9.90;99.90
52397;DHT22;38322;53.108;6.308;2023-04-24T06:41:09;9.90;99.90
52397;DHT22;38322;53.108;6.308;2023-04-24T06:43:35;9.80;99.90
52397;DHT22;38322;53.108;6.308;2023-04-24T06:46:01;9.80;99.90
52397;DHT22;38322;53.108;6.308;2023-04-24T06:48:29;9.80;99.90
52397;DHT22;38322;53.108;6.308;2023-04-24T06:50:55;9.80;99.90
52397;DHT22;38322;53.108;6.308;2023-04-24T06:53:20;9.80;99.90
52397;DHT22;38322;53.108;6.308;2023-04-24T06:55:46;9.80;99.90
52397;DHT22;38322;53.108;6.308;2023-04-24T06:58:12;9.80;99.90
52397;DHT22;38322;53.108;6.308;2023-04-24T07:00:38;9.80;99.90
52397;DHT22;38322;53.108;6.308;2023-04-24T07:03:04;9.70;99.90
52397;DHT22;38322;53.108;6.308;2023-04-24T07:05:31;9.70;99.90
52397;DHT22;38322;53.108;6.308;2023-04-24T07:07:59;9.60;99.90
52397;DHT22;38322;53.108;6.308;2023-04-24T07:10:26;9.60;99.90
52397;DHT22;38322;53.108;6.308;2023-04-24T07:12:54;9.60;99.90
52397;DHT22;38322;53.108;6.308;2023-04-24T07:15:22;9.50;99.90
52397;DHT22;38322;53.108;6.308;2023-04-24T07:17:48;9.50;99.90
52397;DHT22;38322;53.108;6.308;2023-04-24T07:20:13;9.50;99.90
52397;DHT22;38322;53.108;6.308;2023-04-24T07:22:40;9.50;99.90
52397;DHT22;38322;53.108;6.308;2023-04-24T07:25:07;9.50;99.90
52397;DHT22;38322;53.108;6.308;2023-04-24T07:27:34;9.50;99.90
52397;DHT22;38322;53.108;6.308;2023-04-24T07:30:00;9.50;99.90
52397;DHT22;38322;53.108;6.308;2023-04-24T07:32:27;9.50;99.90
52397;DHT22;38322;53.108;6.308;2023-04-24T07:34:53;9.50;99.90
52397;DHT22;38322;53.108;6.308;2023-04-24T07:37:19;9.50;99.90
52397;DHT22;38322;53.108;6.308;2023-04-24T07:39:45;9.50;99.90
52397;DHT22;38322;53.108;6.308;2023-04-24T07:42:11;9.50;99.90
52397;DHT22;38322;53.108;6.308;2023-04-24T07:44:36;9.50;99.90
52397;DHT22;38322;53.108;6.308;2023-04-24T07:47:02;9.40;99.90
52397;DHT22;38322;53.108;6.308;2023-04-24T07:49:28;9.40;99.90
52397;DHT22;38322;53.108;6.308;2023-04-24T07:51:54;9.40;99.90
52397;DHT22;38322;53.108;6.308;2023-04-24T07:54:20;9.40;99.90
52397;DHT22;38322;53.108;6.308;2023-04-24T07:56:45;9.30;99.90
52397;DHT22;38322;53.108;6.308;2023-04-24T07:59:11;9.30;99.90
52397;DHT22;38322;53.108;6.308;2023-04-24T08:01:37;9.30;99.90
52397;DHT22;38322;53.108;6.308;2023-04-24T08:04:03;9.20;99.90
52397;DHT22;38322;53.108;6.308;2023-04-24T08:06:29;9.20;99.90
52397;DHT22;38322;53.108;6.308;2023-04-24T08:08:56;9.20;99.90
52397;DHT22;38322;53.108;6.308;2023-04-24T08:11:22;9.30;99.90
52397;DHT22;38322;53.108;6.308;2023-04-24T08:13:48;9.30;99.90
52397;DHT22;38322;53.108;6.308;2023-04-24T08:16:13;9.20;99.90
52397;DHT22;38322;53.108;6.308;2023-04-24T08:18:40;9.20;99.90
52397;DHT22;38322;53.108;6.308;2023-04-24T08:21:05;9.20;99.90
52397;DHT22;38322;53.108;6.308;2023-04-24T08:23:31;9.20;99.90
52397;DHT22;38322;53.108;6.308;2023-04-24T08:25:57;9.20;99.90
52397;DHT22;38322;53.108;6.308;2023-04-24T08:28:23;9.10;99.90
52397;DHT22;38322;53.108;6.308;2023-04-24T08:30:49;9.10;99.90
52397;DHT22;38322;53.108;6.308;2023-04-24T08:33:22;9.10;99.90
52397;DHT22;38322;53.108;6.308;2023-04-24T08:35:48;9.10;99.90
52397;DHT22;38322;53.108;6.308;2023-04-24T08:38:15;9.10;99.90
52397;DHT22;38322;53.108;6.308;2023-04-24T08:40:41;9.10;99.90
52397;DHT22;38322;53.108;6.308;2023-04-24T08:43:07;9.20;99.90
52397;DHT22;38322;53.108;6.308;2023-04-24T08:45:33;9.20;99.90
52397;DHT22;38322;53.108;6.308;2023-04-24T08:48:00;9.20;99.90
52397;DHT22;38322;53.108;6.308;2023-04-24T08:50:26;9.20;99.90
52397;DHT22;38322;53.108;6.308;2023-04-24T08:52:52;9.30;99.90
52397;DHT22;38322;53.108;6.308;2023-04-24T08:55:20;9.20;99.90
52397;DHT22;38322;53.108;6.308;2023-04-24T08:57:51;9.30;99.90
52397;DHT22;38322;53.108;6.308;2023-04-24T09:00:20;9.30;99.90
52397;DHT22;38322;53.108;6.308;2023-04-24T09:02:47;9.30;99.90
52397;DHT22;38322;53.108;6.308;2023-04-24T09:05:14;9.40;99.90
52397;DHT22;38322;53.108;6.308;2023-04-24T09:07:45;9.40;99.90
52397;DHT22;38322;53.108;6.308;2023-04-24T09:10:12;9.50;99.90
52397;DHT22;38322;53.108;6.308;2023-04-24T09:12:38;9.60;99.90
52397;DHT22;38322;53.108;6.308;2023-04-24T09:15:04;9.60;99.90
52397;DHT22;38322;53.108;6.308;2023-04-24T09:17:33;9.50;99.90
52397;DHT22;38322;53.108;6.308;2023-04-24T09:19:59;9.50;99.90
52397;DHT22;38322;53.108;6.308;2023-04-24T09:22:30;9.40;99.90
52397;DHT22;38322;53.108;6.308;2023-04-24T09:25:03;9.40;99.90
52397;DHT22;38322;53.108;6.308;2023-04-24T09:27:31;9.40;99.90
52397;DHT22;38322;53.108;6.308;2023-04-24T09:29:58;9.40;99.90
52397;DHT22;38322;53.108;6.308;2023-04-24T09:32:24;9.40;99.90
52397;DHT22;38322;53.108;6.308;2023-04-24T09:35:08;9.40;99.90
52397;DHT22;38322;53.108;6.308;2023-04-24T09:37:37;9.50;99.90
52397;DHT22;38322;53.108;6.308;2023-04-24T09:40:11;9.50;99.90
52397;DHT22;38322;53.108;6.308;2023-04-24T09:42:38;9.50;99.90
52397;DHT22;38322;53.108;6.308;2023-04-24T09:45:09;9.50;99.90
52397;DHT22;38322;53.108;6.308;2023-04-24T09:47:37;9.50;99.90
52397;DHT22;38322;53.108;6.308;2023-04-24T09:50:16;9.50;99.90
52397;DHT22;38322;53.108;6.308;2023-04-24T09:52:45;9.60;99.90
52397;DHT22;38322;53.108;6.308;2023-04-24T09:55:15;9.70;99.90
52397;DHT22;38322;53.108;6.308;2023-04-24T09:58:01;9.80;99.90
52397;DHT22;38322;53.108;6.308;2023-04-24T10:00:28;9.80;99.90
52397;DHT22;38322;53.108;6.308;2023-04-24T10:02:57;9.90;99.90
52397;DHT22;38322;53.108;6.308;2023-04-24T10:05:25;9.90;99.90
52397;DHT22;38322;53.108;6.308;2023-04-24T10:07:56;9.90;99.90
52397;DHT22;38322;53.108;6.308;2023-04-24T10:10:23;9.90;99.90
52397;DHT22;38322;53.108;6.308;2023-04-24T10:12:49;9.90;99.90
52397;DHT22;38322;53.108;6.308;2023-04-24T10:15:16;10.00;99.90
52397;DHT22;38322;53.108;6.308;2023-04-24T10:17:49;10.10;99.90
52397;DHT22;38322;53.108;6.308;2023-04-24T10:20:22;10.10;99.90
52397;DHT22;38322;53.108;6.308;2023-04-24T10:22:50;10.10;99.90
52397;DHT22;38322;53.108;6.308;2023-04-24T10:25:20;10.20;99.90
52397;DHT22;38322;53.108;6.308;2023-04-24T10:27:47;10.20;99.90
52397;DHT22;38322;53.108;6.308;2023-04-24T10:30:13;10.20;99.90
52397;DHT22;38322;53.108;6.308;2023-04-24T10:32:39;10.10;99.90
52397;DHT22;38322;53.108;6.308;2023-04-24T10:35:08;10.20;99.90
52397;DHT22;38322;53.108;6.308;2023-04-24T10:37:37;10.30;99.90
52397;DHT22;38322;53.108;6.308;2023-04-24T10:40:04;10.30;99.90
52397;DHT22;38322;53.108;6.308;2023-04-24T10:42:31;10.30;99.90
52397;DHT22;38322;53.108;6.308;2023-04-24T10:44:56;10.30;99.90
52397;DHT22;38322;53.108;6.308;2023-04-24T10:47:23;10.30;99.90
52397;DHT22;38322;53.108;6.308;2023-04-24T10:49:51;10.30;99.90
52397;DHT22;38322;53.108;6.308;2023-04-24T10:52:17;10.20;99.90
52397;DHT22;38322;53.108;6.308;2023-04-24T10:54:45;10.20;99.90
52397;DHT22;38322;53.108;6.308;2023-04-24T10:57:28;10.20;99.90
52397;DHT22;38322;53.108;6.308;2023-04-24T11:00:15;10.10;99.90
52397;DHT22;38322;53.108;6.308;2023-04-24T11:02:41;10.20;99.90
52397;DHT22;38322;53.108;6.308;2023-04-24T11:05:21;10.20;99.90
52397;DHT22;38322;53.108;6.308;2023-04-24T11:08:12;10.30;99.90
52397;DHT22;38322;53.108;6.308;2023-04-24T11:10:40;10.30;99.90
52397;DHT22;38322;53.108;6.308;2023-04-24T11:13:06;10.40;99.90
52397;DHT22;38322;53.108;6.308;2023-04-24T11:15:32;10.50;99.90
52397;DHT22;38322;53.108;6.308;2023-04-24T11:17:58;10.50;99.90
52397;DHT22;38322;53.108;6.308;2023-04-24T11:20:24;10.60;99.90
52397;DHT22;38322;53.108;6.308;2023-04-24T11:22:53;10.80;99.90
52397;DHT22;38322;53.108;6.308;2023-04-24T11:25:21;10.90;99.90
52397;DHT22;38322;53.108;6.308;2023-04-24T11:27:48;10.90;99.90
52397;DHT22;38322;53.108;6.308;2023-04-24T11:30:21;10.90;99.90
52397;DHT22;38322;53.108;6.308;2023-04-24T11:32:49;10.80;99.90
52397;DHT22;38322;53.108;6.308;2023-04-24T11:35:19;10.70;99.90
52397;DHT22;38322;53.108;6.308;2023-04-24T11:37:48;10.70;99.90
52397;DHT22;38322;53.108;6.308;2023-04-24T11:40:16;10.40;99.90
52397;DHT22;38322;53.108;6.308;2023-04-24T11:42:44;10.20;99.90
52397;DHT22;38322;53.108;6.308;2023-04-24T11:45:12;10.00;99.90
52397;DHT22;38322;53.108;6.308;2023-04-24T11:47:39;9.90;99.90
52397;DHT22;38322;53.108;6.308;2023-04-24T11:50:08;9.90;99.90
52397;DHT22;38322;53.108;6.308;2023-04-24T11:52:38;9.80;99.90
52397;DHT22;38322;53.108;6.308;2023-04-24T11:55:05;9.80;99.90
52397;DHT22;38322;53.108;6.308;2023-04-24T11:57:32;9.90;99.90
52397;DHT22;38322;53.108;6.308;2023-04-24T12:00:01;9.90;99.90
52397;DHT22;38322;53.108;6.308;2023-04-24T12:02:28;10.00;99.90
52397;DHT22;38322;53.108;6.308;2023-04-24T12:04:54;10.00;99.90
52397;DHT22;38322;53.108;6.308;2023-04-24T12:07:23;9.90;99.90
52397;DHT22;38322;53.108;6.308;2023-04-24T12:09:57;9.90;99.90
52397;DHT22;38322;53.108;6.308;2023-04-24T12:12:26;9.90;99.90
52397;DHT22;38322;53.108;6.308;2023-04-24T12:14:54;9.90;99.90
52397;DHT22;38322;53.108;6.308;2023-04-24T12:17:29;10.00;99.90
52397;DHT22;38322;53.108;6.308;2023-04-24T12:19:59;10.20;99.90
52397;DHT22;38322;53.108;6.308;2023-04-24T12:22:26;10.40;99.90
52397;DHT22;38322;53.108;6.308;2023-04-24T12:24:58;10.40;99.90
52397;DHT22;38322;53.108;6.308;2023-04-24T12:27:25;10.40;99.90
52397;DHT22;38322;53.108;6.308;2023-04-24T12:29:52;10.20;99.90
52397;DHT22;38322;53.108;6.308;2023-04-24T12:32:19;10.20;99.90
52397;DHT22;38322;53.108;6.308;2023-04-24T12:34:44;10.20;99.90
52397;DHT22;38322;53.108;6.308;2023-04-24T12:37:11;10.30;99.90
52397;DHT22;38322;53.108;6.308;2023-04-24T12:39:37;10.30;99.90
52397;DHT22;38322;53.108;6.308;2023-04-24T12:42:03;10.30;99.90
52397;DHT22;38322;53.108;6.308;2023-04-24T12:44:30;10.40;99.90
52397;DHT22;38322;53.108;6.308;2023-04-24T12:46:57;10.60;99.90
52397;DHT22;38322;53.108;6.308;2023-04-24T12:49:23;10.60;99.90
52397;DHT22;38322;53.108;6.308;2023-04-24T12:51:49;10.60;99.90
52397;DHT22;38322;53.108;6.308;2023-04-24T12:54:14;10.50;99.90
52397;DHT22;38322;53.108;6.308;2023-04-24T12:56:40;10.50;99.90
52397;DHT22;38322;53.108;6.308;2023-04-24T12:59:06;10.50;99.90
52397;DHT22;38322;53.108;6.308;2023-04-24T13:01:32;10.60;99.90
52397;DHT22;38322;53.108;6.308;2023-04-24T13:03:58;10.60;99.90
52397;DHT22;38322;53.108;6.308;2023-04-24T13:06:24;10.60;99.90
52397;DHT22;38322;53.108;6.308;2023-04-24T13:08:49;10.50;99.90
52397;DHT22;38322;53.108;6.308;2023-04-24T13:11:16;10.50;99.90
52397;DHT22;38322;53.108;6.308;2023-04-24T13:13:43;10.50;99.90
52397;DHT22;38322;53.108;6.308;2023-04-24T13:16:09;10.50;99.90
52397;DHT22;38322;53.108;6.308;2023-04-24T13:18:35;10.40;99.90
52397;DHT22;38322;53.108;6.308;2023-04-24T13:21:01;10.30;99.90
52397;DHT22;38322;53.108;6.308;2023-04-24T13:23:26;10.20;99.90
52397;DHT22;38322;53.108;6.308;2023-04-24T13:25:53;10.10;99.90
52397;DHT22;38322;53.108;6.308;2023-04-24T13:28:23;10.20;99.90
52397;DHT22;38322;53.108;6.308;2023-04-24T13:30:50;10.10;99.90
52397;DHT22;38322;53.108;6.308;2023-04-24T13:33:16;10.00;99.90
52397;DHT22;38322;53.108;6.308;2023-04-24T13:35:42;9.90;99.90
52397;DHT22;38322;53.108;6.308;2023-04-24T13:38:08;10.00;99.90
52397;DHT22;38322;53.108;6.308;2023-04-24T13:40:34;10.00;99.90
52397;DHT22;38322;53.108;6.308;2023-04-24T13:43:00;10.00;99.90
52397;DHT22;38322;53.108;6.308;2023-04-24T13:45:26;10.10;99.90
52397;DHT22;38322;53.108;6.308;2023-04-24T13:47:52;10.00;99.90
52397;DHT22;38322;53.108;6.308;2023-04-24T13:50:20;10.00;99.90
52397;DHT22;38322;53.108;6.308;2023-04-24T13:52:46;10.00;99.90
52397;DHT22;38322;53.108;6.308;2023-04-24T13:55:12;9.90;99.90
52397;DHT22;38322;53.108;6.308;2023-04-24T13:57:37;9.70;99.90
52397;DHT22;38322;53.108;6.308;2023-04-24T14:00:04;9.50;99.90
52397;DHT22;38322;53.108;6.308;2023-04-24T14:02:35;9.50;99.90
52397;DHT22;38322;53.108;6.308;2023-04-24T14:05:01;9.40;99.90
52397;DHT22;38322;53.108;6.308;2023-04-24T14:07:28;9.50;99.90
52397;DHT22;38322;53.108;6.308;2023-04-24T14:09:54;9.50;99.90
52397;DHT22;38322;53.108;6.308;2023-04-24T14:12:20;9.40;99.90
52397;DHT22;38322;53.108;6.308;2023-04-24T14:14:46;9.40;99.90
52397;DHT22;38322;53.108;6.308;2023-04-24T14:17:14;9.20;99.90
52397;DHT22;38322;53.108;6.308;2023-04-24T14:19:40;9.20;99.90
52397;DHT22;38322;53.108;6.308;2023-04-24T14:22:05;9.20;99.90
52397;DHT22;38322;53.108;6.308;2023-04-24T14:24:31;9.20;99.90
52397;DHT22;38322;53.108;6.308;2023-04-24T14:26:57;9.30;99.90
52397;DHT22;38322;53.108;6.308;2023-04-24T14:29:23;9.50;99.90
52397;DHT22;38322;53.108;6.308;2023-04-24T14:31:49;9.60;99.90
52397;DHT22;38322;53.108;6.308;2023-04-24T14:34:15;9.60;99.90
52397;DHT22;38322;53.108;6.308;2023-04-24T14:36:41;9.60;99.90
52397;DHT22;38322;53.108;6.308;2023-04-24T14:39:07;9.40;99.90
52397;DHT22;38322;53.108;6.308;2023-04-24T14:41:33;9.30;99.90
52397;DHT22;38322;53.108;6.308;2023-04-24T14:44:02;9.20;99.90
52397;DHT22;38322;53.108;6.308;2023-04-24T14:46:29;9.20;99.90
52397;DHT22;38322;53.108;6.308;2023-04-24T14:48:56;9.40;99.90
52397;DHT22;38322;53.108;6.308;2023-04-24T14:51:22;9.50;99.90
52397;DHT22;38322;53.108;6.308;2023-04-24T14:53:48;9.60;99.90
52397;DHT22;38322;53.108;6.308;2023-04-24T14:56:14;9.60;99.90
52397;DHT22;38322;53.108;6.308;2023-04-24T14:58:40;9.50;99.90
52397;DHT22;38322;53.108;6.308;2023-04-24T15:01:06;9.50;99.90
52397;DHT22;38322;53.108;6.308;2023-04-24T15:03:32;9.40;99.90
52397;DHT22;38322;53.108;6.308;2023-04-24T15:05:58;9.40;99.90
52397;DHT22;38322;53.108;6.308;2023-04-24T15:08:23;9.30;99.90
52397;DHT22;38322;53.108;6.308;2023-04-24T15:10:49;9.30;99.90
52397;DHT22;38322;53.108;6.308;2023-04-24T15:13:15;9.30;99.90
52397;DHT22;38322;53.108;6.308;2023-04-24T15:15:41;9.20;99.90
52397;DHT22;38322;53.108;6.308;2023-04-24T15:18:08;9.20;99.90
52397;DHT22;38322;53.108;6.308;2023-04-24T15:20:36;9.30;99.90
52397;DHT22;38322;53.108;6.308;2023-04-24T15:23:02;9.30;99.90
52397;DHT22;38322;53.108;6.308;2023-04-24T15:25:28;9.30;99.90
52397;DHT22;38322;53.108;6.308;2023-04-24T15:27:55;9.30;99.90
52397;DHT22;38322;53.108;6.308;2023-04-24T15:30:20;9.20;99.90
52397;DHT22;38322;53.108;6.308;2023-04-24T15:32:46;9.20;99.90
52397;DHT22;38322;53.108;6.308;2023-04-24T15:35:12;9.10;99.90
52397;DHT22;38322;53.108;6.308;2023-04-24T15:37:38;9.10;99.90
52397;DHT22;38322;53.108;6.308;2023-04-24T15:40:04;9.10;99.90
52397;DHT22;38322;53.108;6.308;2023-04-24T15:42:32;9.10;99.90
52397;DHT22;38322;53.108;6.308;2023-04-24T15:44:58;9.10;99.90
52397;DHT22;38322;53.108;6.308;2023-04-24T15:47:25;9.10;99.90
52397;DHT22;38322;53.108;6.308;2023-04-24T15:49:52;9.10;99.90
52397;DHT22;38322;53.108;6.308;2023-04-24T15:52:18;9.10;99.90
52397;DHT22;38322;53.108;6.308;2023-04-24T15:54:44;9.00;99.90
52397;DHT22;38322;53.108;6.308;2023-04-24T15:57:10;9.00;99.90
52397;DHT22;38322;53.108;6.308;2023-04-24T15:59:38;9.00;99.90
52397;DHT22;38322;53.108;6.308;2023-04-24T16:02:04;9.00;99.90
52397;DHT22;38322;53.108;6.308;2023-04-24T16:04:30;9.00;99.90
52397;DHT22;38322;53.108;6.308;2023-04-24T16:06:56;9.00;99.90
52397;DHT22;38322;53.108;6.308;2023-04-24T16:09:22;9.00;99.90
52397;DHT22;38322;53.108;6.308;2023-04-24T16:11:48;8.90;99.90
52397;DHT22;38322;53.108;6.308;2023-04-24T16:14:14;8.80;99.90
52397;DHT22;38322;53.108;6.308;2023-04-24T16:16:40;8.70;99.90
52397;DHT22;38322;53.108;6.308;2023-04-24T16:19:06;8.70;99.90
52397;DHT22;38322;53.108;6.308;2023-04-24T16:21:33;8.90;99.90
52397;DHT22;38322;53.108;6.308;2023-04-24T16:23:59;9.00;99.90
52397;DHT22;38322;53.108;6.308;2023-04-24T16:26:25;9.00;99.90
52397;DHT22;38322;53.108;6.308;2023-04-24T16:28:51;9.00;99.90
52397;DHT22;38322;53.108;6.308;2023-04-24T16:31:17;8.90;99.90
52397;DHT22;38322;53.108;6.308;2023-04-24T16:33:42;8.80;99.90
52397;DHT22;38322;53.108;6.308;2023-04-24T16:36:08;8.80;99.90
52397;DHT22;38322;53.108;6.308;2023-04-24T16:38:35;8.80;99.90
52397;DHT22;38322;53.108;6.308;2023-04-24T16:41:00;8.80;99.90
52397;DHT22;38322;53.108;6.308;2023-04-24T16:43:26;8.80;99.90
52397;DHT22;38322;53.108;6.308;2023-04-24T16:45:53;8.80;99.90
52397;DHT22;38322;53.108;6.308;2023-04-24T16:48:19;8.80;99.90
52397;DHT22;38322;53.108;6.308;2023-04-24T16:50:44;8.80;99.90
52397;DHT22;38322;53.108;6.308;2023-04-24T16:53:10;8.70;99.90
52397;DHT22;38322;53.108;6.308;2023-04-24T16:55:37;8.70;99.90
52397;DHT22;38322;53.108;6.308;2023-04-24T16:58:03;8.80;99.90
52397;DHT22;38322;53.108;6.308;2023-04-24T17:00:29;8.80;99.90
52397;DHT22;38322;53.108;6.308;2023-04-24T17:02:55;8.80;99.90
52397;DHT22;38322;53.108;6.308;2023-04-24T17:05:20;8.90;99.90
52397;DHT22;38322;53.108;6.308;2023-04-24T17:07:49;8.90;99.90
52397;DHT22;38322;53.108;6.308;2023-04-24T17:10:15;8.90;99.90
52397;DHT22;38322;53.108;6.308;2023-04-24T17:12:41;8.90;99.90
52397;DHT22;38322;53.108;6.308;2023-04-24T17:15:06;8.90;99.90
52397;DHT22;38322;53.108;6.308;2023-04-24T17:17:32;8.80;99.90
52397;DHT22;38322;53.108;6.308;2023-04-24T17:19:58;8.80;99.90
52397;DHT22;38322;53.108;6.308;2023-04-24T17:22:25;8.70;99.90
52397;DHT22;38322;53.108;6.308;2023-04-24T17:24:51;8.70;99.90
52397;DHT22;38322;53.108;6.308;2023-04-24T17:27:17;8.60;99.90
52397;DHT22;38322;53.108;6.308;2023-04-24T17:29:42;8.60;99.90
52397;DHT22;38322;53.108;6.308;2023-04-24T17:32:08;8.50;99.90
52397;DHT22;38322;53.108;6.308;2023-04-24T17:34:34;8.50;99.90
52397;DHT22;38322;53.108;6.308;2023-04-24T17:37:00;8.50;99.90
52397;DHT22;38322;53.108;6.308;2023-04-24T17:39:27;8.50;99.90
52397;DHT22;38322;53.108;6.308;2023-04-24T17:41:52;8.40;99.90
52397;DHT22;38322;53.108;6.308;2023-04-24T17:44:18;8.40;99.90
52397;DHT22;38322;53.108;6.308;2023-04-24T17:46:44;8.40;99.90
52397;DHT22;38322;53.108;6.308;2023-04-24T17:49:10;8.30;99.90
52397;DHT22;38322;53.108;6.308;2023-04-24T17:51:36;8.30;99.90
52397;DHT22;38322;53.108;6.308;2023-04-24T17:54:02;8.30;99.90
52397;DHT22;38322;53.108;6.308;2023-04-24T17:56:28;8.30;99.90
52397;DHT22;38322;53.108;6.308;2023-04-24T17:58:54;8.30;99.90
52397;DHT22;38322;53.108;6.308;2023-04-24T18:01:20;8.20;99.90
52397;DHT22;38322;53.108;6.308;2023-04-24T18:03:46;8.20;99.90
52397;DHT22;38322;53.108;6.308;2023-04-24T18:06:12;8.20;99.90
52397;DHT22;38322;53.108;6.308;2023-04-24T18:08:42;8.20;99.90
52397;DHT22;38322;53.108;6.308;2023-04-24T18:11:08;8.20;99.90
52397;DHT22;38322;53.108;6.308;2023-04-24T18:13:34;8.20;99.90
52397;DHT22;38322;53.108;6.308;2023-04-24T18:16:00;8.20;99.90
52397;DHT22;38322;53.108;6.308;2023-04-24T18:18:25;8.20;99.90
52397;DHT22;38322;53.108;6.308;2023-04-24T18:20:51;8.10;99.90
52397;DHT22;38322;53.108;6.308;2023-04-24T18:23:17;8.10;99.90
52397;DHT22;38322;53.108;6.308;2023-04-24T18:25:43;8.00;99.90
52397;DHT22;38322;53.108;6.308;2023-04-24T18:28:10;7.90;99.90
52397;DHT22;38322;53.108;6.308;2023-04-24T18:30:36;7.90;99.90
52397;DHT22;38322;53.108;6.308;2023-04-24T18:33:02;7.90;99.90
52397;DHT22;38322;53.108;6.308;2023-04-24T18:35:27;7.90;99.90
52397;DHT22;38322;53.108;6.308;2023-04-24T18:37:53;7.80;99.90
52397;DHT22;38322;53.108;6.308;2023-04-24T18:40:19;7.80;99.90
52397;DHT22;38322;53.108;6.308;2023-04-24T18:42:45;7.80;99.90
52397;DHT22;38322;53.108;6.308;2023-04-24T18:45:12;7.70;99.90
52397;DHT22;38322;53.108;6.308;2023-04-24T18:47:37;7.70;99.90
52397;DHT22;38322;53.108;6.308;2023-04-24T18:50:04;7.70;99.90
52397;DHT22;38322;53.108;6.308;2023-04-24T18:52:30;7.70;99.90
52397;DHT22;38322;53.108;6.308;2023-04-24T18:54:56;7.70;99.90
52397;DHT22;38322;53.108;6.308;2023-04-24T18:57:22;7.70;99.90
52397;DHT22;38322;53.108;6.308;2023-04-24T18:59:48;7.70;99.90
52397;DHT22;38322;53.108;6.308;2023-04-24T19:02:14;7.70;99.90
52397;DHT22;38322;53.108;6.308;2023-04-24T19:04:40;7.70;99.90
52397;DHT22;38322;53.108;6.308;2023-04-24T19:07:06;7.70;99.90
52397;DHT22;38322;53.108;6.308;2023-04-24T19:09:33;7.80;99.90
52397;DHT22;38322;53.108;6.308;2023-04-24T19:11:58;7.80;99.90
52397;DHT22;38322;53.108;6.308;2023-04-24T19:14:26;7.80;99.90
52397;DHT22;38322;53.108;6.308;2023-04-24T19:16:52;7.80;99.90
52397;DHT22;38322;53.108;6.308;2023-04-24T19:19:18;7.80;99.90
52397;DHT22;38322;53.108;6.308;2023-04-24T19:21:44;7.80;99.90
52397;DHT22;38322;53.108;6.308;2023-04-24T19:24:12;7.80;99.90
52397;DHT22;38322;53.108;6.308;2023-04-24T19:26:38;7.80;99.90
52397;DHT22;38322;53.108;6.308;2023-04-24T19:29:04;7.80;99.90
52397;DHT22;38322;53.108;6.308;2023-04-24T19:31:29;7.80;99.90
52397;DHT22;38322;53.108;6.308;2023-04-24T19:33:55;7.80;99.90
52397;DHT22;38322;53.108;6.308;2023-04-24T19:36:21;7.80;99.90
52397;DHT22;38322;53.108;6.308;2023-04-24T19:38:48;7.80;99.90
52397;DHT22;38322;53.108;6.308;2023-04-24T19:41:15;7.80;99.90
52397;DHT22;38322;53.108;6.308;2023-04-24T19:43:41;7.80;99.90
52397;DHT22;38322;53.108;6.308;2023-04-24T19:46:07;7.80;99.90
52397;DHT22;38322;53.108;6.308;2023-04-24T19:48:33;7.80;99.90
52397;DHT22;38322;53.108;6.308;2023-04-24T19:50:59;7.90;99.90
52397;DHT22;38322;53.108;6.308;2023-04-24T19:53:26;7.80;99.90
52397;DHT22;38322;53.108;6.308;2023-04-24T19:55:52;7.80;99.90
52397;DHT22;38322;53.108;6.308;2023-04-24T19:58:17;7.80;99.90
52397;DHT22;38322;53.108;6.308;2023-04-24T20:00:43;7.80;99.90
